Check out our new PWSWeather beta!
PWSweather.com
Personal Weather Stations
Station Observations
METEOC500
Santo Antonio, FunchalPT 2020

Santo AntonioFunchalPT 2020

Lat: 32.678227, Lon: -16.945054

Elevation: 1669.94751

Station Type: WH Series

High Low Average
Temperature 68.7°F20.4°C 57.2°F14.0°C 60.9°F16.1°C
Dew Point 60.6°F15.9°C 52.0°F11.1°C 56.5°F13.6°C
Winds 9.4 mph 15.1 kmh Calm Calm 3.0 mph WSW4.8 kmh WSW
Wind Gusts 12.5 mph20.1 kmh -- 7.0 mph11.3 kmh
Humidity 97% 69% 86%
Pressure 30.14 in1020.7 mb 30.05 in1017.6 mb -
Precipitation 0.06 in1.5 mm - -
Hour Temp Dew Point Humidity Winds Wind Gusts Pressure Precip Precip Rate Daily Precip Total
12:02 AM 59.5°F15.3°C 54.3°F12.4°C 83% 9.4 mph NNW15.1 kmh NNW 12.5 mph20.1 kmh 30.11 in1019.6 mb 0.00 in0.0 mm 0.00 in0.0 mm 0.00 in0.0 mm
12:17 AM 59.5°F15.3°C 54.0°F12.2°C 82% 7.6 mph NNW12.2 kmh NNW 12.5 mph20.1 kmh 30.10 in1019.3 mb 0.00 in0.0 mm 0.00 in0.0 mm 0.00 in0.0 mm
12:32 AM 59.4°F15.2°C 53.6°F12.0°C 81% 7.2 mph NNW11.6 kmh NNW 12.5 mph20.1 kmh 30.10 in1019.3 mb 0.00 in0.0 mm 0.00 in0.0 mm 0.00 in0.0 mm
12:47 AM 59.4°F15.2°C 53.2°F11.8°C 80% 7.8 mph NNW12.6 kmh NNW 12.5 mph20.1 kmh 30.09 in1019.0 mb 0.00 in0.0 mm 0.00 in0.0 mm 0.00 in0.0 mm
01:02 AM 59.4°F15.2°C 53.2°F11.8°C 80% 8.1 mph NNW13.0 kmh NNW 12.5 mph20.1 kmh 30.09 in1019.0 mb 0.00 in0.0 mm 0.00 in0.0 mm 0.00 in0.0 mm
01:18 AM 59.4°F15.2°C 52.9°F11.6°C 79% 8.1 mph NNW13.0 kmh NNW 12.5 mph20.1 kmh 30.08 in1018.6 mb 0.00 in0.0 mm 0.00 in0.0 mm 0.00 in0.0 mm
01:33 AM 59.2°F15.1°C 53.1°F11.7°C 80% 6.0 mph NNW9.7 kmh NNW 10.1 mph16.3 kmh 30.08 in1018.6 mb 0.00 in0.0 mm 0.00 in0.0 mm 0.00 in0.0 mm
01:48 AM 58.6°F14.8°C 53.2°F11.8°C 82% 4.0 mph N6.4 kmh N 7.6 mph12.2 kmh 30.08 in1018.6 mb 0.00 in0.0 mm 0.00 in0.0 mm 0.00 in0.0 mm
02:03 AM 58.1°F14.5°C 52.7°F11.5°C 82% 3.8 mph NNW6.1 kmh NNW 7.6 mph12.2 kmh 30.08 in1018.6 mb 0.00 in0.0 mm 0.00 in0.0 mm 0.00 in0.0 mm
02:18 AM 57.9°F14.4°C 52.7°F11.5°C 83% 3.1 mph NNW5.0 kmh NNW 7.6 mph12.2 kmh 30.08 in1018.6 mb 0.00 in0.0 mm 0.00 in0.0 mm 0.00 in0.0 mm
02:33 AM 57.9°F14.4°C 52.7°F11.5°C 83% 4.0 mph NNW6.4 kmh NNW 7.6 mph12.2 kmh 30.08 in1018.6 mb 0.00 in0.0 mm 0.00 in0.0 mm 0.00 in0.0 mm
02:48 AM 57.6°F14.2°C 52.5°F11.4°C 83% 4.9 mph NNW7.9 kmh NNW 10.1 mph16.3 kmh 30.07 in1018.3 mb 0.00 in0.0 mm 0.00 in0.0 mm 0.00 in0.0 mm
03:03 AM 57.2°F14.0°C 52.2°F11.2°C 83% 3.4 mph NNW5.5 kmh NNW 10.1 mph16.3 kmh 30.06 in1017.9 mb 0.00 in0.0 mm 0.00 in0.0 mm 0.00 in0.0 mm
03:18 AM 57.4°F14.1°C 52.0°F11.1°C 82% 4.7 mph N7.6 kmh N 7.6 mph12.2 kmh 30.07 in1018.3 mb 0.00 in0.0 mm 0.00 in0.0 mm 0.00 in0.0 mm
03:33 AM 57.6°F14.2°C 52.2°F11.2°C 82% 6.3 mph N10.1 kmh N 10.1 mph16.3 kmh 30.07 in1018.3 mb 0.00 in0.0 mm 0.00 in0.0 mm 0.00 in0.0 mm
03:48 AM 57.7°F14.3°C 52.0°F11.1°C 81% 6.0 mph NNW9.7 kmh NNW 10.1 mph16.3 kmh 30.06 in1017.9 mb 0.00 in0.0 mm 0.00 in0.0 mm 0.00 in0.0 mm
04:03 AM 58.1°F14.5°C 52.3°F11.3°C 81% 6.3 mph NNW10.1 kmh NNW 10.1 mph16.3 kmh 30.07 in1018.3 mb 0.00 in0.0 mm 0.00 in0.0 mm 0.00 in0.0 mm
04:18 AM 58.1°F14.5°C 52.3°F11.3°C 81% 6.5 mph NNW10.5 kmh NNW 10.1 mph16.3 kmh 30.06 in1017.9 mb 0.00 in0.0 mm 0.00 in0.0 mm 0.00 in0.0 mm
04:33 AM 58.3°F14.6°C 52.9°F11.6°C 82% 6.5 mph NNW10.5 kmh NNW 10.1 mph16.3 kmh 30.06 in1017.9 mb 0.00 in0.0 mm 0.00 in0.0 mm 0.00 in0.0 mm
04:48 AM 58.5°F14.7°C 53.2°F11.8°C 83% 3.8 mph NNW6.1 kmh NNW 10.1 mph16.3 kmh 30.07 in1018.3 mb 0.00 in0.0 mm 0.00 in0.0 mm 0.00 in0.0 mm
05:03 AM 58.3°F14.6°C 54.1°F12.3°C 86% 3.4 mph NNW5.5 kmh NNW 7.6 mph12.2 kmh 30.08 in1018.6 mb 0.00 in0.0 mm 0.00 in0.0 mm 0.00 in0.0 mm
05:18 AM 58.3°F14.6°C 53.8°F12.1°C 85% 0.7 mph NW1.1 kmh NW 4.9 mph7.9 kmh 30.07 in1018.3 mb 0.00 in0.0 mm 0.00 in0.0 mm 0.00 in0.0 mm
05:34 AM 58.6°F14.8°C 53.4°F11.9°C 83% 2.2 mph NNW3.5 kmh NNW 4.9 mph7.9 kmh 30.07 in1018.3 mb 0.00 in0.0 mm 0.00 in0.0 mm 0.00 in0.0 mm
05:49 AM 59.4°F15.2°C 53.6°F12.0°C 81% 3.4 mph NW5.5 kmh NW 7.6 mph12.2 kmh 30.07 in1018.3 mb 0.00 in0.0 mm 0.00 in0.0 mm 0.00 in0.0 mm
06:04 AM 59.9°F15.5°C 53.8°F12.1°C 80% Calm Calm 4.9 mph7.9 kmh 30.08 in1018.6 mb 0.00 in0.0 mm 0.00 in0.0 mm 0.00 in0.0 mm
06:19 AM 60.1°F15.6°C 54.5°F12.5°C 82% 1.3 mph NW2.1 kmh NW 4.9 mph7.9 kmh 30.07 in1018.3 mb 0.00 in0.0 mm 0.00 in0.0 mm 0.00 in0.0 mm
06:34 AM 59.9°F15.5°C 54.1°F12.3°C 81% 3.8 mph NW6.1 kmh NW 7.6 mph12.2 kmh 30.08 in1018.6 mb 0.00 in0.0 mm 0.00 in0.0 mm 0.00 in0.0 mm
06:49 AM 59.7°F15.4°C 53.6°F12.0°C 80% 5.6 mph NNW9.0 kmh NNW 10.1 mph16.3 kmh 30.08 in1018.6 mb 0.00 in0.0 mm 0.00 in0.0 mm 0.00 in0.0 mm
07:04 AM 59.5°F15.3°C 53.4°F11.9°C 80% 7.6 mph NW12.2 kmh NW 12.5 mph20.1 kmh 30.08 in1018.6 mb 0.00 in0.0 mm 0.00 in0.0 mm 0.00 in0.0 mm
07:19 AM 59.4°F15.2°C 52.9°F11.6°C 79% 8.5 mph N13.7 kmh N 12.5 mph20.1 kmh 30.09 in1019.0 mb 0.00 in0.0 mm 0.00 in0.0 mm 0.00 in0.0 mm
07:34 AM 59.0°F15.0°C 52.9°F11.6°C 80% 7.8 mph N12.6 kmh N 12.5 mph20.1 kmh 30.09 in1019.0 mb 0.00 in0.0 mm 0.00 in0.0 mm 0.00 in0.0 mm
07:49 AM 58.8°F14.9°C 52.7°F11.5°C 80% 8.1 mph NNW13.0 kmh NNW 12.5 mph20.1 kmh 30.09 in1019.0 mb 0.00 in0.0 mm 0.00 in0.0 mm 0.00 in0.0 mm
08:04 AM 58.6°F14.8°C 52.5°F11.4°C 80% 6.9 mph NNW11.1 kmh NNW 12.5 mph20.1 kmh 30.10 in1019.3 mb 0.00 in0.0 mm 0.00 in0.0 mm 0.00 in0.0 mm
08:19 AM 59.0°F15.0°C 52.2°F11.2°C 78% 6.9 mph NW11.1 kmh NW 12.5 mph20.1 kmh 30.10 in1019.3 mb 0.00 in0.0 mm 0.00 in0.0 mm 0.00 in0.0 mm
08:34 AM 59.9°F15.5°C 53.1°F11.7°C 78% 5.6 mph NNW9.0 kmh NNW 10.1 mph16.3 kmh 30.10 in1019.3 mb 0.00 in0.0 mm 0.00 in0.0 mm 0.00 in0.0 mm
08:49 AM 60.6°F15.9°C 53.8°F12.1°C 78% 6.0 mph N9.7 kmh N 10.1 mph16.3 kmh 30.10 in1019.3 mb 0.00 in0.0 mm 0.00 in0.0 mm 0.00 in0.0 mm
09:04 AM 60.8°F16.0°C 54.0°F12.2°C 78% 3.8 mph N6.1 kmh N 7.6 mph12.2 kmh 30.11 in1019.6 mb 0.00 in0.0 mm 0.00 in0.0 mm 0.00 in0.0 mm
09:19 AM 61.2°F16.2°C 54.3°F12.4°C 78% 3.4 mph NNW5.5 kmh NNW 7.6 mph12.2 kmh 30.11 in1019.6 mb 0.00 in0.0 mm 0.00 in0.0 mm 0.00 in0.0 mm
09:34 AM 61.7°F16.5°C 54.1°F12.3°C 76% 2.5 mph N4.0 kmh N 4.9 mph7.9 kmh 30.12 in1020.0 mb 0.00 in0.0 mm 0.00 in0.0 mm 0.00 in0.0 mm
09:49 AM 63.5°F17.5°C 53.1°F11.7°C 69% Calm Calm 2.5 mph4.0 kmh 30.11 in1019.6 mb 0.00 in0.0 mm 0.00 in0.0 mm 0.00 in0.0 mm
10:05 AM 65.8°F18.8°C 56.1°F13.4°C 71% 3.8 mph S6.1 kmh S 7.6 mph12.2 kmh 30.11 in1019.6 mb 0.00 in0.0 mm 0.00 in0.0 mm 0.00 in0.0 mm
10:20 AM 66.2°F19.0°C 56.1°F13.4°C 70% 0.7 mph SE1.1 kmh SE 7.6 mph12.2 kmh 30.13 in1020.3 mb 0.00 in0.0 mm 0.00 in0.0 mm 0.00 in0.0 mm
10:35 AM 66.2°F19.0°C 56.1°F13.4°C 70% 2.9 mph S4.7 kmh S 7.6 mph12.2 kmh 30.13 in1020.3 mb 0.00 in0.0 mm 0.00 in0.0 mm 0.00 in0.0 mm
10:50 AM 66.9°F19.4°C 57.6°F14.2°C 72% Calm Calm 10.1 mph16.3 kmh 30.12 in1020.0 mb 0.00 in0.0 mm 0.00 in0.0 mm 0.00 in0.0 mm
11:05 AM 68.0°F20.0°C 59.4°F15.2°C 74% 2.2 mph SSE3.5 kmh SSE 10.1 mph16.3 kmh 30.13 in1020.3 mb 0.00 in0.0 mm 0.00 in0.0 mm 0.00 in0.0 mm
11:20 AM 68.7°F20.4°C 60.1°F15.6°C 74% 3.4 mph SE5.5 kmh SE 10.1 mph16.3 kmh 30.12 in1020.0 mb 0.00 in0.0 mm 0.00 in0.0 mm 0.00 in0.0 mm
11:35 AM 68.2°F20.1°C 59.9°F15.5°C 75% 3.4 mph S5.5 kmh S 10.1 mph16.3 kmh 30.12 in1020.0 mb 0.00 in0.0 mm 0.00 in0.0 mm 0.00 in0.0 mm
11:50 AM 67.8°F19.9°C 60.3°F15.7°C 77% 3.8 mph SE6.1 kmh SE 10.1 mph16.3 kmh 30.12 in1020.0 mb 0.00 in0.0 mm 0.00 in0.0 mm 0.00 in0.0 mm
12:05 PM 67.6°F19.8°C 59.7°F15.4°C 76% 4.9 mph SSW7.9 kmh SSW 10.1 mph16.3 kmh 30.11 in1019.6 mb 0.00 in0.0 mm 0.00 in0.0 mm 0.00 in0.0 mm
12:20 PM 67.8°F19.9°C 59.5°F15.3°C 75% 4.9 mph S7.9 kmh S 7.6 mph12.2 kmh 30.10 in1019.3 mb 0.00 in0.0 mm 0.00 in0.0 mm 0.00 in0.0 mm
12:35 PM 67.6°F19.8°C 60.6°F15.9°C 78% 2.9 mph S4.7 kmh S 10.1 mph16.3 kmh 30.09 in1019.0 mb 0.00 in0.0 mm 0.00 in0.0 mm 0.00 in0.0 mm
12:50 PM 65.7°F18.7°C 59.0°F15.0°C 79% 3.1 mph SSW5.0 kmh SSW 10.1 mph16.3 kmh 30.09 in1019.0 mb 0.00 in0.0 mm 0.00 in0.0 mm 0.00 in0.0 mm
01:05 PM 65.7°F18.7°C 60.4°F15.8°C 83% 3.4 mph SSW5.5 kmh SSW 10.1 mph16.3 kmh 30.08 in1018.6 mb 0.00 in0.0 mm 0.00 in0.0 mm 0.00 in0.0 mm
01:20 PM 64.8°F18.2°C 60.1°F15.6°C 85% 0.7 mph SSW1.1 kmh SSW 7.6 mph12.2 kmh 30.08 in1018.6 mb 0.00 in0.0 mm 0.00 in0.0 mm 0.00 in0.0 mm
01:35 PM 63.9°F17.7°C 59.9°F15.5°C 87% 2.2 mph S3.5 kmh S 7.6 mph12.2 kmh 30.07 in1018.3 mb 0.00 in0.0 mm 0.00 in0.0 mm 0.00 in0.0 mm
01:50 PM 63.1°F17.3°C 59.5°F15.3°C 88% 3.1 mph S5.0 kmh S 7.6 mph12.2 kmh 30.07 in1018.3 mb 0.00 in0.0 mm 0.00 in0.0 mm 0.00 in0.0 mm
02:05 PM 62.8°F17.1°C 59.5°F15.3°C 89% 1.6 mph S2.6 kmh S 7.6 mph12.2 kmh 30.06 in1017.9 mb 0.00 in0.0 mm 0.00 in0.0 mm 0.00 in0.0 mm
02:21 PM 62.6°F17.0°C 59.5°F15.3°C 90% 3.1 mph S5.0 kmh S 7.6 mph12.2 kmh 30.06 in1017.9 mb 0.00 in0.0 mm 0.00 in0.0 mm 0.00 in0.0 mm
02:36 PM 62.4°F16.9°C 59.4°F15.2°C 90% 3.4 mph S5.5 kmh S 7.6 mph12.2 kmh 30.06 in1017.9 mb 0.00 in0.0 mm 0.00 in0.0 mm 0.00 in0.0 mm
02:51 PM 62.2°F16.8°C 59.9°F15.5°C 92% 2.2 mph S3.5 kmh S 7.6 mph12.2 kmh 30.06 in1017.9 mb 0.00 in0.0 mm 0.00 in0.0 mm 0.00 in0.0 mm
03:06 PM 61.9°F16.6°C 59.5°F15.3°C 92% 3.4 mph SE5.5 kmh SE 7.6 mph12.2 kmh 30.05 in1017.6 mb 0.00 in0.0 mm 0.00 in0.0 mm 0.00 in0.0 mm
03:21 PM 61.5°F16.4°C 59.5°F15.3°C 93% 1.3 mph SSW2.1 kmh SSW 7.6 mph12.2 kmh 30.05 in1017.6 mb 0.00 in0.0 mm 0.00 in0.0 mm 0.00 in0.0 mm
03:33 PM 61.5°F16.4°C 59.5°F15.3°C 93% Calm Calm -- 30.09 in1019.0 mb 0.00 in0.0 mm 0.00 in0.0 mm 0.00 in0.0 mm
03:48 PM 61.5°F16.4°C 59.2°F15.1°C 92% Calm Calm 4.9 mph7.9 kmh 30.06 in1017.9 mb 0.00 in0.0 mm 0.00 in0.0 mm 0.00 in0.0 mm
04:03 PM 61.5°F16.4°C 59.2°F15.1°C 92% 1.3 mph SSE2.1 kmh SSE 4.9 mph7.9 kmh 30.06 in1017.9 mb 0.00 in0.0 mm 0.00 in0.0 mm 0.00 in0.0 mm
04:18 PM 61.5°F16.4°C 59.2°F15.1°C 92% Calm Calm 2.5 mph4.0 kmh 30.06 in1017.9 mb 0.00 in0.0 mm 0.00 in0.0 mm 0.00 in0.0 mm
04:33 PM 61.7°F16.5°C 59.4°F15.2°C 92% 1.3 mph S2.1 kmh S 4.9 mph7.9 kmh 30.06 in1017.9 mb 0.00 in0.0 mm 0.00 in0.0 mm 0.00 in0.0 mm
04:48 PM 61.7°F16.5°C 59.4°F15.2°C 92% Calm Calm 4.9 mph7.9 kmh 30.06 in1017.9 mb 0.00 in0.0 mm 0.00 in0.0 mm 0.00 in0.0 mm
05:03 PM 61.5°F16.4°C 59.5°F15.3°C 93% 2.5 mph S4.0 kmh S 4.9 mph7.9 kmh 30.07 in1018.3 mb 0.00 in0.0 mm 0.00 in0.0 mm 0.00 in0.0 mm
05:18 PM 61.5°F16.4°C 59.7°F15.4°C 94% 1.3 mph S2.1 kmh S 4.9 mph7.9 kmh 30.07 in1018.3 mb 0.00 in0.0 mm 0.00 in0.0 mm 0.00 in0.0 mm
05:33 PM 61.3°F16.3°C 59.5°F15.3°C 94% 0.2 mph SSW0.3 kmh SSW 4.9 mph7.9 kmh 30.07 in1018.3 mb 0.00 in0.0 mm 0.00 in0.0 mm 0.00 in0.0 mm
05:48 PM 61.2°F16.2°C 59.7°F15.4°C 95% Calm Calm 2.5 mph4.0 kmh 30.08 in1018.6 mb 0.00 in0.0 mm 0.00 in0.0 mm 0.00 in0.0 mm
06:03 PM 61.0°F16.1°C 59.5°F15.3°C 95% 0.7 mph S1.1 kmh S 2.5 mph4.0 kmh 30.07 in1018.3 mb 0.00 in0.0 mm 0.00 in0.0 mm 0.00 in0.0 mm
06:18 PM 60.8°F16.0°C 59.4°F15.2°C 95% Calm Calm 4.9 mph7.9 kmh 30.08 in1018.6 mb 0.00 in0.0 mm 0.00 in0.0 mm 0.00 in0.0 mm
06:33 PM 60.8°F16.0°C 59.7°F15.4°C 96% 0.9 mph S1.4 kmh S 4.9 mph7.9 kmh 30.08 in1018.6 mb 0.00 in0.0 mm 0.00 in0.0 mm 0.00 in0.0 mm
06:48 PM 60.8°F16.0°C 59.7°F15.4°C 96% 0.7 mph SSE1.1 kmh SSE 7.6 mph12.2 kmh 30.08 in1018.6 mb 0.00 in0.0 mm 0.00 in0.0 mm 0.00 in0.0 mm
07:03 PM 60.6°F15.9°C 59.5°F15.3°C 96% 1.6 mph SSE2.6 kmh SSE 4.9 mph7.9 kmh 30.09 in1019.0 mb 0.00 in0.0 mm 0.00 in0.0 mm 0.00 in0.0 mm
07:18 PM 60.4°F15.8°C 59.4°F15.2°C 96% Calm Calm 4.9 mph7.9 kmh 30.09 in1019.0 mb 0.00 in0.0 mm 0.00 in0.0 mm 0.00 in0.0 mm
07:33 PM 60.4°F15.8°C 59.4°F15.2°C 96% Calm Calm 4.9 mph7.9 kmh 30.10 in1019.3 mb 0.00 in0.0 mm 0.00 in0.0 mm 0.00 in0.0 mm
07:48 PM 60.3°F15.7°C 59.2°F15.1°C 96% Calm Calm 4.9 mph7.9 kmh 30.10 in1019.3 mb 0.00 in0.0 mm 0.00 in0.0 mm 0.00 in0.0 mm
08:04 PM 59.9°F15.5°C 58.8°F14.9°C 96% Calm Calm 2.5 mph4.0 kmh 30.11 in1019.6 mb 0.01 in0.3 mm 0.01 in0.3 mm 0.01 in0.3 mm
08:19 PM 59.5°F15.3°C 58.5°F14.7°C 96% Calm Calm -- 30.11 in1019.6 mb 0.01 in0.3 mm 0.00 in0.0 mm 0.01 in0.3 mm
08:34 PM 59.4°F15.2°C 58.5°F14.7°C 97% Calm Calm -- 30.11 in1019.6 mb 0.02 in0.5 mm 0.04 in1.0 mm 0.02 in0.5 mm
08:49 PM 59.5°F15.3°C 58.6°F14.8°C 97% Calm Calm -- 30.12 in1020.0 mb 0.02 in0.5 mm 0.00 in0.0 mm 0.02 in0.5 mm
09:04 PM 59.4°F15.2°C 58.5°F14.7°C 97% Calm Calm -- 30.11 in1019.6 mb 0.02 in0.5 mm 0.00 in0.0 mm 0.04 in1.0 mm
09:19 PM 59.2°F15.1°C 58.3°F14.6°C 97% Calm Calm -- 30.12 in1020.0 mb 0.04 in1.0 mm 0.08 in2.0 mm 0.05 in1.3 mm
09:34 PM 59.0°F15.0°C 58.1°F14.5°C 97% 1.6 mph NW2.6 kmh NW 2.5 mph4.0 kmh 30.13 in1020.3 mb 0.04 in1.0 mm 0.00 in0.0 mm 0.06 in1.5 mm
09:49 PM 58.6°F14.8°C 57.6°F14.2°C 96% 1.3 mph NW2.1 kmh NW 4.9 mph7.9 kmh 30.12 in1020.0 mb 0.04 in1.0 mm 0.00 in0.0 mm 0.06 in1.5 mm
10:04 PM 58.6°F14.8°C 57.6°F14.2°C 96% 0.7 mph NW1.1 kmh NW 2.5 mph4.0 kmh 30.12 in1020.0 mb 0.02 in0.5 mm 0.00 in0.0 mm 0.06 in1.5 mm
10:19 PM 58.6°F14.8°C 57.6°F14.2°C 96% 1.3 mph NNW2.1 kmh NNW 4.9 mph7.9 kmh 30.12 in1020.0 mb 0.01 in0.3 mm 0.00 in0.0 mm 0.06 in1.5 mm
10:34 PM 58.5°F14.7°C 57.4°F14.1°C 96% Calm Calm 4.9 mph7.9 kmh 30.13 in1020.3 mb 0.00 in0.0 mm 0.00 in0.0 mm 0.06 in1.5 mm
10:49 PM 58.3°F14.6°C 57.2°F14.0°C 96% 0.7 mph NW1.1 kmh NW 4.9 mph7.9 kmh 30.13 in1020.3 mb 0.00 in0.0 mm 0.00 in0.0 mm 0.06 in1.5 mm
11:04 PM 58.5°F14.7°C 57.4°F14.1°C 96% Calm Calm 2.5 mph4.0 kmh 30.13 in1020.3 mb 0.00 in0.0 mm 0.00 in0.0 mm 0.06 in1.5 mm
11:19 PM 58.5°F14.7°C 57.4°F14.1°C 96% Calm Calm 4.9 mph7.9 kmh 30.14 in1020.7 mb 0.00 in0.0 mm 0.00 in0.0 mm 0.06 in1.5 mm
11:34 PM 58.3°F14.6°C 56.8°F13.8°C 95% 1.6 mph NNW2.6 kmh NNW 4.9 mph7.9 kmh 30.14 in1020.7 mb 0.00 in0.0 mm 0.00 in0.0 mm 0.06 in1.5 mm
11:49 PM 58.1°F14.5°C 56.7°F13.7°C 95% 0.2 mph NW0.3 kmh NW 2.5 mph4.0 kmh 30.14 in1020.7 mb 0.00 in0.0 mm 0.00 in0.0 mm 0.06 in1.5 mm